createdAt,value
2022-08-18T00:00:12.343Z,0.340
2022-08-18T00:01:07.697Z,0.560
2022-08-18T00:02:07.255Z,0.449
2022-08-18T00:03:20.714Z,0.449
2022-08-18T00:04:21.747Z,0.449
2022-08-18T00:05:07.473Z,0.560
2022-08-18T00:06:07.633Z,0.340
2022-08-18T00:07:07.143Z,0.109
2022-08-18T00:08:07.677Z,0.560
2022-08-18T00:09:07.368Z,0.219
2022-08-18T00:10:07.699Z,0.680
2022-08-18T00:11:07.213Z,0.219
2022-08-18T00:12:07.459Z,0.560
2022-08-18T00:13:06.880Z,0.790
2022-08-18T00:14:07.261Z,0.449
2022-08-18T00:15:07.799Z,0.340
2022-08-18T00:16:07.268Z,0.449
2022-08-18T00:17:07.628Z,0.340
2022-08-18T00:18:07.022Z,0.449
2022-08-18T00:19:09.415Z,0.219
2022-08-18T00:20:07.615Z,0.219
2022-08-18T00:21:07.049Z,0.109
2022-08-18T00:22:07.051Z,0.790
2022-08-18T00:23:07.097Z,0.219
2022-08-18T00:24:06.981Z,0.340
2022-08-18T00:25:07.278Z,0.219
2022-08-18T00:26:07.320Z,0.449
2022-08-18T00:27:07.528Z,0.560
2022-08-18T00:28:07.354Z,0.109
2022-08-18T00:29:07.248Z,0.560
2022-08-18T00:30:07.484Z,0.340
2022-08-18T00:31:06.929Z,0.370
2022-08-18T00:32:07.421Z,0.620
2022-08-18T00:33:06.947Z,0.219
2022-08-18T00:34:07.048Z,0
2022-08-18T00:35:07.053Z,0.100
2022-08-18T00:36:07.186Z,0.239
2022-08-18T00:37:07.368Z,0.109
2022-08-18T00:38:07.342Z,0.100
2022-08-18T00:39:07.101Z,0.119
2022-08-18T00:40:07.439Z,0
2022-08-18T00:41:07.460Z,0.340
2022-08-18T00:42:07.024Z,0.109
2022-08-18T00:43:07.333Z,0.200
2022-08-18T00:44:07.260Z,0.119
2022-08-18T00:45:08.018Z,0
2022-08-18T00:46:07.041Z,0.219
2022-08-18T00:47:07.115Z,0.109
2022-08-18T00:48:07.237Z,0
2022-08-18T00:49:06.884Z,0.109
2022-08-18T00:50:07.203Z,0
2022-08-18T00:51:07.031Z,0
2022-08-18T00:52:07.295Z,0
2022-08-18T00:53:07.237Z,0
2022-08-18T00:54:07.279Z,0
2022-08-18T00:55:07.528Z,0
2022-08-18T00:56:07.436Z,0
2022-08-18T00:57:07.395Z,0
2022-08-18T00:58:07.506Z,0
2022-08-18T00:59:07.584Z,0
2022-08-18T01:00:07.933Z,0.340
2022-08-18T01:01:07.477Z,0.109
2022-08-18T01:02:07.630Z,0.109
2022-08-18T01:03:07.196Z,0.109
2022-08-18T01:04:07.215Z,0
2022-08-18T01:05:07.563Z,0
2022-08-18T01:06:07.616Z,0
2022-08-18T01:07:07.225Z,0
2022-08-18T01:08:07.258Z,0.340
2022-08-18T01:09:07.794Z,0.109
2022-08-18T01:10:07.133Z,0.340
2022-08-18T01:11:07.218Z,0
2022-08-18T01:12:44.985Z,0
2022-08-18T01:13:07.511Z,0.109
2022-08-18T01:14:07.425Z,0.219
2022-08-18T01:15:08.149Z,0.109
2022-08-18T01:16:06.807Z,0
2022-08-18T01:17:07.449Z,0
2022-08-18T01:18:07.307Z,0
2022-08-18T01:19:07.256Z,0
2022-08-18T01:20:07.538Z,0
2022-08-18T01:21:07.322Z,0.109
2022-08-18T01:22:07.625Z,0
2022-08-18T01:23:07.871Z,0
2022-08-18T01:24:07.216Z,0
2022-08-18T01:25:07.315Z,0
2022-08-18T01:26:07.687Z,0
2022-08-18T01:27:07.186Z,0
2022-08-18T01:28:07.394Z,0
2022-08-18T01:29:07.809Z,0
2022-08-18T01:30:07.800Z,0
2022-08-18T01:31:07.075Z,0
2022-08-18T01:32:07.407Z,0
2022-08-18T01:33:07.763Z,0
2022-08-18T01:34:07.097Z,0
2022-08-18T01:35:07.239Z,0
2022-08-18T01:36:07.478Z,0
2022-08-18T01:37:07.194Z,0
2022-08-18T01:38:07.479Z,0
2022-08-18T01:39:07.676Z,0
2022-08-18T01:41:22.913Z,0
2022-08-18T01:41:26.078Z,0.109
2022-08-18T01:42:07.197Z,0
2022-08-18T01:43:07.291Z,0
2022-08-18T01:44:07.313Z,0
2022-08-18T01:45:07.573Z,0
2022-08-18T01:46:07.723Z,0
2022-08-18T01:47:07.619Z,0
2022-08-18T01:48:06.888Z,0
2022-08-18T01:49:07.084Z,0
2022-08-18T01:50:07.098Z,0
2022-08-18T01:51:07.491Z,0
2022-08-18T01:52:07.543Z,0
2022-08-18T01:53:07.425Z,0
2022-08-18T01:54:07.691Z,0
2022-08-18T01:55:07.341Z,0
2022-08-18T01:56:07.372Z,0
2022-08-18T01:57:07.717Z,0
2022-08-18T01:58:07.104Z,0
2022-08-18T01:59:07.218Z,0
2022-08-18T02:00:08.073Z,0
2022-08-18T02:01:07.694Z,0
2022-08-18T02:02:07.638Z,0
2022-08-18T02:03:07.588Z,0.109
2022-08-18T02:04:31.188Z,0
2022-08-18T02:05:07.624Z,0
2022-08-18T02:06:07.106Z,0
2022-08-18T02:07:07.819Z,0
2022-08-18T02:08:07.755Z,0
2022-08-18T02:09:07.389Z,0
2022-08-18T02:10:11.874Z,0
2022-08-18T02:11:07.597Z,0
2022-08-18T02:12:07.518Z,0.119
2022-08-18T02:13:07.695Z,0
2022-08-18T02:14:07.579Z,0.100
2022-08-18T02:15:07.745Z,0
2022-08-18T02:16:07.212Z,0.109
2022-08-18T02:17:07.528Z,0
2022-08-18T02:18:07.441Z,0.219
2022-08-18T02:19:07.484Z,0
2022-08-18T02:20:07.565Z,0.119
2022-08-18T02:21:10.163Z,0
2022-08-18T02:22:07.542Z,0.219
2022-08-18T02:23:07.723Z,0.109
2022-08-18T02:24:07.188Z,0.219
2022-08-18T02:25:07.686Z,0
2022-08-18T02:26:06.907Z,0
2022-08-18T02:27:06.984Z,0.219
2022-08-18T02:28:07.220Z,0.109
2022-08-18T02:29:07.365Z,0.109
2022-08-18T02:30:07.416Z,0.219
2022-08-18T02:31:07.438Z,0
2022-08-18T02:32:07.411Z,0
2022-08-18T02:33:07.532Z,0.109
2022-08-18T02:34:07.483Z,0
2022-08-18T02:35:09.499Z,0
2022-08-18T02:36:07.245Z,0.109
2022-08-18T02:37:09.910Z,0.219
2022-08-18T02:38:07.524Z,0
2022-08-18T02:39:07.310Z,0.109
2022-08-18T02:40:07.462Z,0.109
2022-08-18T02:41:07.215Z,0.109
2022-08-18T02:42:07.302Z,0.109
2022-08-18T02:43:07.382Z,0
2022-08-18T02:44:07.270Z,0.219
2022-08-18T02:45:07.746Z,0
2022-08-18T02:46:07.262Z,0
2022-08-18T02:47:07.300Z,0.219
2022-08-18T02:48:07.401Z,0.109
2022-08-18T02:49:07.471Z,0.109
2022-08-18T02:50:07.795Z,0.109
2022-08-18T02:51:07.499Z,0.109
2022-08-18T02:52:07.423Z,0
2022-08-18T02:53:07.468Z,0.109
2022-08-18T02:54:07.718Z,0.219
2022-08-18T02:55:07.282Z,0.109
2022-08-18T02:57:07.223Z,0.109
2022-08-18T02:58:07.239Z,0
2022-08-18T02:59:07.051Z,0.219
2022-08-18T03:00:07.758Z,0
2022-08-18T03:01:07.018Z,0
2022-08-18T03:02:07.387Z,0.109
2022-08-18T03:03:07.162Z,0.109
2022-08-18T03:04:07.252Z,0
2022-08-18T03:05:07.283Z,0.109
2022-08-18T03:06:06.893Z,0
2022-08-18T03:07:07.175Z,0.109
2022-08-18T03:08:07.243Z,0.109
2022-08-18T03:09:07.373Z,0.340
2022-08-18T03:10:32.679Z,0
2022-08-18T03:11:07.463Z,0.109
2022-08-18T03:12:07.338Z,0.219
2022-08-18T03:13:07.230Z,0
2022-08-18T03:14:11.245Z,0.340
2022-08-18T03:15:07.189Z,0.219
2022-08-18T03:16:07.198Z,0.219
2022-08-18T03:17:07.516Z,0
2022-08-18T03:18:07.492Z,0.109
2022-08-18T03:19:07.305Z,0
2022-08-18T03:20:07.163Z,0
2022-08-18T03:21:07.658Z,0.219
2022-08-18T03:22:18.748Z,0.109
2022-08-18T03:23:09.752Z,0.109
2022-08-18T03:24:09.287Z,0
2022-08-18T03:25:07.466Z,0.219
2022-08-18T03:26:07.380Z,0.109
2022-08-18T03:27:07.390Z,0
2022-08-18T03:28:07.643Z,0
2022-08-18T03:29:06.905Z,0
2022-08-18T03:30:11.301Z,0.109
2022-08-18T03:31:06.987Z,0
2022-08-18T03:32:07.183Z,0
2022-08-18T03:33:07.216Z,0
2022-08-18T03:34:07.591Z,0
2022-08-18T03:35:07.849Z,0
2022-08-18T03:36:07.317Z,0
2022-08-18T03:37:07.455Z,0
2022-08-18T03:38:07.467Z,13600
2022-08-18T03:39:07.505Z,0
2022-08-18T03:40:07.780Z,0
2022-08-18T03:41:07.238Z,13600
2022-08-18T03:42:07.242Z,0
2022-08-18T03:43:49.459Z,13600
2022-08-18T03:44:06.765Z,0
2022-08-18T03:45:13.273Z,0
2022-08-18T03:46:06.871Z,0
2022-08-18T03:47:06.894Z,0
2022-08-18T03:48:06.737Z,0
2022-08-18T03:49:07.554Z,13600
2022-08-18T03:50:07.642Z,0
2022-08-18T03:51:06.926Z,0
2022-08-18T03:52:06.982Z,0
2022-08-18T03:53:07.176Z,0
2022-08-18T03:54:07.188Z,0.050
2022-08-18T03:55:07.188Z,0
2022-08-18T03:56:07.283Z,0
2022-08-18T03:57:07.714Z,0.170
2022-08-18T03:58:07.809Z,0.680
2022-08-18T03:59:06.905Z,0.680
2022-08-18T04:00:07.848Z,1.519
2022-08-18T04:01:07.529Z,0.939
2022-08-18T04:02:07.662Z,1.360
2022-08-18T04:03:07.168Z,2.259
2022-08-18T04:04:07.409Z,2.900
2022-08-18T04:05:07.182Z,3.390
2022-08-18T04:06:12.139Z,4.659
2022-08-18T04:07:07.298Z,5.289
2022-08-18T04:08:07.604Z,6.530
2022-08-18T04:09:07.784Z,8.180
2022-08-18T04:10:07.182Z,9.579
2022-08-18T04:11:07.981Z,11.10
2022-08-18T04:12:07.430Z,13.30
2022-08-18T04:13:07.482Z,15.10
2022-08-18T04:14:07.484Z,17.60
2022-08-18T04:15:07.358Z,20.10
2022-08-18T04:16:07.588Z,22.60
2022-08-18T04:17:07.393Z,25.60
2022-08-18T04:18:08.129Z,29.10
2022-08-18T04:19:07.030Z,32.09
2022-08-18T04:20:07.020Z,36
2022-08-18T04:21:07.326Z,40.09
2022-08-18T04:22:07.453Z,44.29
2022-08-18T04:23:07.284Z,49.40
2022-08-18T04:24:07.532Z,54.29
2022-08-18T04:25:07.860Z,59.59
2022-08-18T04:26:07.051Z,64.30
2022-08-18T04:27:07.036Z,69
2022-08-18T04:28:07.176Z,74.09
2022-08-18T04:29:07.349Z,79.40
2022-08-18T04:30:07.750Z,85.09
2022-08-18T04:31:09.217Z,90.90
2022-08-18T04:32:07.741Z,96.40
2022-08-18T04:33:07.129Z,101.5
2022-08-18T04:34:07.465Z,107.4
2022-08-18T04:35:12.302Z,114.5
2022-08-18T04:36:07.807Z,122.5
2022-08-18T04:37:07.101Z,132
2022-08-18T04:38:07.171Z,143
2022-08-18T04:39:07.397Z,156
2022-08-18T04:40:07.882Z,175
2022-08-18T04:41:06.786Z,200
2022-08-18T04:42:07.000Z,228
2022-08-18T04:43:07.064Z,250
2022-08-18T04:44:07.395Z,290
2022-08-18T04:45:07.613Z,321
2022-08-18T04:46:07.682Z,350
2022-08-18T04:47:06.963Z,390
2022-08-18T04:48:07.255Z,430
2022-08-18T04:49:07.274Z,464
2022-08-18T04:50:07.335Z,488
2022-08-18T04:51:07.249Z,509
2022-08-18T04:52:37.547Z,540
2022-08-18T04:53:07.307Z,575
2022-08-18T04:54:07.366Z,598
2022-08-18T04:55:07.604Z,615
2022-08-18T04:56:07.819Z,640
2022-08-18T04:57:06.893Z,680
2022-08-18T04:58:07.108Z,730
2022-08-18T04:59:07.376Z,760
2022-08-18T05:00:08.194Z,800
2022-08-18T05:01:07.511Z,830
2022-08-18T05:02:10.260Z,860
2022-08-18T05:03:07.213Z,910
2022-08-18T05:04:07.158Z,960
2022-08-18T05:05:07.283Z,1020
2022-08-18T05:06:07.508Z,1060
2022-08-18T05:07:07.815Z,1092
2022-08-18T05:08:06.969Z,1120
2022-08-18T05:09:07.139Z,1146
2022-08-18T05:10:07.500Z,1163
2022-08-18T05:11:07.656Z,1173.
2022-08-18T05:12:07.002Z,1181.
2022-08-18T05:13:07.442Z,1181.
2022-08-18T05:14:07.453Z,1176.
2022-08-18T05:16:11.811Z,1143.
2022-08-18T05:17:07.595Z,1145
2022-08-18T05:18:07.666Z,1166
2022-08-18T05:19:08.005Z,1210
2022-08-18T05:20:07.418Z,1250
2022-08-18T05:21:09.148Z,1277
2022-08-18T05:22:07.598Z,1293
2022-08-18T05:23:07.405Z,1320
2022-08-18T05:24:07.533Z,1351
2022-08-18T05:25:07.772Z,1380
2022-08-18T05:26:07.542Z,1410
2022-08-18T05:27:07.807Z,1442
2022-08-18T05:28:07.049Z,1467
2022-08-18T05:29:18.164Z,1487
2022-08-18T05:30:08.343Z,1501.
2022-08-18T05:31:13.122Z,1501.
2022-08-18T05:32:07.387Z,1488
2022-08-18T05:33:07.788Z,1466
2022-08-18T05:34:06.959Z,1441
2022-08-18T05:35:07.181Z,1416
2022-08-18T05:36:07.591Z,1389
2022-08-18T05:37:08.259Z,1364
2022-08-18T05:38:07.606Z,1340
2022-08-18T05:39:08.607Z,1324
2022-08-18T05:40:11.425Z,1315.
2022-08-18T05:41:07.287Z,1313.
2022-08-18T05:42:07.264Z,1311.
2022-08-18T05:43:07.325Z,1314.
2022-08-18T05:44:07.360Z,1319
2022-08-18T05:45:07.672Z,1338
2022-08-18T05:46:07.267Z,1366
2022-08-18T05:47:07.530Z,1398
2022-08-18T05:48:07.503Z,1418
2022-08-18T05:49:07.559Z,1425.
2022-08-18T05:50:07.765Z,1420.
2022-08-18T05:51:07.029Z,1411.
2022-08-18T05:52:07.215Z,1405.
2022-08-18T05:53:12.534Z,1406.
2022-08-18T05:54:07.441Z,1417
2022-08-18T05:55:07.841Z,1429
2022-08-18T05:56:07.192Z,1445
2022-08-18T05:57:07.683Z,1470
2022-08-18T05:58:07.361Z,1502
2022-08-18T05:59:07.378Z,1514.
2022-08-18T06:00:08.649Z,1505
2022-08-18T06:01:07.769Z,1484
2022-08-18T06:02:07.429Z,1465
2022-08-18T06:03:07.328Z,1462.
2022-08-18T06:04:07.586Z,1480
2022-08-18T06:05:07.365Z,1510
2022-08-18T06:06:07.593Z,1535
2022-08-18T06:07:07.300Z,1558
2022-08-18T06:08:07.618Z,1584
2022-08-18T06:09:07.700Z,1610
2022-08-18T06:10:07.186Z,1635
2022-08-18T06:11:07.607Z,1660
2022-08-18T06:12:07.012Z,1700
2022-08-18T06:13:07.238Z,1730
2022-08-18T06:14:07.482Z,1770
2022-08-18T06:15:08.061Z,1798
2022-08-18T06:16:07.522Z,1818
2022-08-18T06:17:07.357Z,1840
2022-08-18T06:18:07.408Z,1880
2022-08-18T06:19:07.651Z,1940
2022-08-18T06:20:07.962Z,1980
2022-08-18T06:21:07.122Z,2010
2022-08-18T06:22:07.251Z,2049
2022-08-18T06:23:07.397Z,2020
2022-08-18T06:24:07.459Z,1970
2022-08-18T06:25:07.569Z,1970
2022-08-18T06:26:07.453Z,1999
2022-08-18T06:27:07.650Z,2030
2022-08-18T06:28:07.697Z,2078
2022-08-18T06:29:07.234Z,2077
2022-08-18T06:30:07.847Z,2020
2022-08-18T06:31:07.191Z,1960
2022-08-18T06:32:07.493Z,1890
2022-08-18T06:33:07.558Z,1800
2022-08-18T06:34:07.607Z,1748
2022-08-18T06:35:07.087Z,1700
2022-08-18T06:36:07.225Z,1640
2022-08-18T06:37:07.283Z,1630
2022-08-18T06:38:07.511Z,1650
2022-08-18T06:39:08.000Z,1600
2022-08-18T06:40:07.497Z,1580
2022-08-18T06:41:07.817Z,1530
2022-08-18T06:42:07.506Z,1490
2022-08-18T06:43:07.688Z,1496.
2022-08-18T06:44:07.200Z,1479
2022-08-18T06:45:07.752Z,1500
2022-08-18T06:46:07.402Z,1410
2022-08-18T06:47:07.563Z,1370
2022-08-18T06:48:15.636Z,1360
2022-08-18T06:49:07.408Z,1340
2022-08-18T06:50:07.913Z,1280
2022-08-18T06:51:07.308Z,1370
2022-08-18T06:52:07.388Z,1360
2022-08-18T06:53:07.385Z,1395
2022-08-18T06:54:07.491Z,1440
2022-08-18T06:55:07.650Z,1481
2022-08-18T06:56:25.804Z,1470
2022-08-18T06:57:07.009Z,1425
2022-08-18T06:58:07.135Z,1460
2022-08-18T06:59:07.140Z,1600
2022-08-18T07:00:08.141Z,1560
2022-08-18T07:01:07.787Z,1400
2022-08-18T07:02:07.589Z,1400
2022-08-18T07:03:07.367Z,1510
2022-08-18T07:04:07.638Z,1430
2022-08-18T07:05:07.237Z,1430
2022-08-18T07:06:07.338Z,1442
2022-08-18T07:07:07.364Z,1413
2022-08-18T07:08:07.676Z,1460
2022-08-18T07:09:07.141Z,1500
2022-08-18T07:10:07.291Z,1600
2022-08-18T07:11:07.494Z,1700
2022-08-18T07:12:07.790Z,1850
2022-08-18T07:13:07.190Z,1885
2022-08-18T07:14:16.209Z,1880
2022-08-18T07:15:07.778Z,1860
2022-08-18T07:16:07.263Z,1700
2022-08-18T07:17:07.452Z,1715
2022-08-18T07:18:07.661Z,1720
2022-08-18T07:19:07.657Z,1777
2022-08-18T07:20:26.191Z,1800
2022-08-18T07:21:07.578Z,1880
2022-08-18T07:22:07.725Z,1850
2022-08-18T07:23:07.896Z,1780
2022-08-18T07:24:23.158Z,1773.
2022-08-18T07:25:07.455Z,1760
2022-08-18T07:26:07.704Z,1720
2022-08-18T07:27:07.329Z,1800
2022-08-18T07:28:07.746Z,1869
2022-08-18T07:29:07.185Z,1820
2022-08-18T07:30:07.795Z,1800
2022-08-18T07:31:17.070Z,2100
2022-08-18T07:32:09.468Z,2200
2022-08-18T07:33:07.663Z,2400
2022-08-18T07:34:07.763Z,2620
2022-08-18T07:35:07.947Z,2670
2022-08-18T07:36:07.038Z,2500
2022-08-18T07:37:07.421Z,2340
2022-08-18T07:38:24.856Z,2410
2022-08-18T07:39:07.362Z,2478.
2022-08-18T07:40:07.857Z,2469
2022-08-18T07:41:07.427Z,2500
2022-08-18T07:42:07.544Z,2500
2022-08-18T07:43:07.916Z,2472
2022-08-18T07:44:12.950Z,2470
2022-08-18T07:45:07.396Z,2550
2022-08-18T07:46:07.837Z,2610
2022-08-18T07:47:07.282Z,2400
2022-08-18T07:48:27.512Z,2300
2022-08-18T07:49:07.714Z,2500
2022-08-18T07:50:23.372Z,2574
2022-08-18T07:51:08.784Z,2540
2022-08-18T07:52:14.601Z,2000
2022-08-18T07:53:07.434Z,3000
2022-08-18T07:54:07.126Z,3100
2022-08-18T07:55:07.469Z,2000
2022-08-18T07:56:07.519Z,2710
2022-08-18T07:57:07.794Z,2730
2022-08-18T07:58:07.318Z,2850
2022-08-18T07:59:07.493Z,2880
2022-08-18T08:00:10.512Z,2900
2022-08-18T08:01:07.184Z,3000
2022-08-18T08:02:07.523Z,3800
2022-08-18T08:03:07.153Z,3700
2022-08-18T08:04:07.362Z,3500
2022-08-18T08:05:07.407Z,3200
2022-08-18T08:06:08.017Z,3070
2022-08-18T08:07:24.003Z,2900
2022-08-18T08:08:07.005Z,2700
2022-08-18T08:09:07.544Z,2600
2022-08-18T08:10:07.720Z,2430
2022-08-18T08:11:07.161Z,2300
2022-08-18T08:12:07.201Z,2100
2022-08-18T08:13:09.656Z,2030
2022-08-18T08:14:07.555Z,2000
2022-08-18T08:15:08.323Z,2000
2022-08-18T08:16:07.385Z,2000
2022-08-18T08:17:07.974Z,2600
2022-08-18T08:18:07.232Z,2750
2022-08-18T08:19:12.385Z,2730
2022-08-18T08:20:07.285Z,2600
2022-08-18T08:21:07.666Z,2540
2022-08-18T08:22:07.123Z,2400
2022-08-18T08:23:07.689Z,2300
2022-08-18T08:24:07.342Z,2210
2022-08-18T08:25:22.454Z,2211
2022-08-18T08:26:08.524Z,2160
2022-08-18T08:27:07.441Z,2060
2022-08-18T08:28:07.603Z,2040
2022-08-18T08:29:08.031Z,2090
2022-08-18T08:30:08.227Z,2100
2022-08-18T08:31:33.072Z,2040
2022-08-18T08:32:07.757Z,1999
2022-08-18T08:33:07.157Z,1993
2022-08-18T08:34:07.414Z,2000
2022-08-18T08:35:10.423Z,2080
2022-08-18T08:36:07.401Z,2146
2022-08-18T08:37:07.503Z,2140
2022-08-18T08:38:23.252Z,2000
2022-08-18T08:39:07.157Z,1900
2022-08-18T08:40:07.986Z,1880
2022-08-18T08:41:07.585Z,1860.
2022-08-18T08:42:31.844Z,1881
2022-08-18T08:43:07.556Z,1879
2022-08-18T08:44:07.170Z,1871.
2022-08-18T08:45:08.156Z,1872.
2022-08-18T08:46:07.410Z,1861
2022-08-18T08:47:07.386Z,1900
2022-08-18T08:48:09.555Z,1990
2022-08-18T08:49:07.390Z,1970
2022-08-18T08:50:07.673Z,1890
2022-08-18T08:51:07.093Z,1870
2022-08-18T08:52:07.331Z,1900
2022-08-18T08:53:07.558Z,2100
2022-08-18T08:54:07.755Z,2000
2022-08-18T08:55:07.153Z,2000
2022-08-18T08:56:07.090Z,3000
2022-08-18T08:57:09.847Z,3100
2022-08-18T08:58:07.297Z,3260
2022-08-18T08:59:07.652Z,3000
2022-08-18T09:00:08.513Z,2000
2022-08-18T09:01:07.735Z,2400
2022-08-18T09:02:07.311Z,2200
2022-08-18T09:03:07.378Z,2100
2022-08-18T09:04:07.415Z,2250
2022-08-18T09:05:09.381Z,2298
2022-08-18T09:06:07.348Z,2330
2022-08-18T09:07:07.626Z,2300
2022-08-18T09:08:07.003Z,2500
2022-08-18T09:09:07.555Z,2670
2022-08-18T09:10:07.608Z,2610
2022-08-18T09:11:07.795Z,2520
2022-08-18T09:12:07.127Z,2430
2022-08-18T09:13:07.298Z,2400
2022-08-18T09:14:07.474Z,2000
2022-08-18T09:15:08.104Z,3000
2022-08-18T09:16:12.196Z,3177
2022-08-18T09:17:07.555Z,3000
2022-08-18T09:18:07.349Z,2800
2022-08-18T09:19:07.486Z,2770
2022-08-18T09:20:07.838Z,2800
2022-08-18T09:21:07.285Z,3000
2022-08-18T09:22:07.366Z,3000
2022-08-18T09:23:07.594Z,3900
2022-08-18T09:24:07.014Z,3800
2022-08-18T09:25:07.473Z,3800
2022-08-18T09:26:07.872Z,4000
2022-08-18T09:27:21.472Z,4000
2022-08-18T09:28:10.824Z,0
2022-08-18T09:29:07.772Z,0
2022-08-18T09:30:07.331Z,9900
2022-08-18T09:31:09.098Z,10200
2022-08-18T09:32:11.336Z,9000
2022-08-18T09:33:18.552Z,9000
2022-08-18T09:34:07.450Z,8000
2022-08-18T09:35:07.433Z,7000
2022-08-18T09:36:10.157Z,6000
2022-08-18T09:37:07.745Z,6000
2022-08-18T09:38:07.217Z,5000
2022-08-18T09:39:08.020Z,5130
2022-08-18T09:40:10.852Z,5000
2022-08-18T09:41:07.310Z,5000
2022-08-18T09:42:07.157Z,6100
2022-08-18T09:43:07.601Z,6100
2022-08-18T09:44:07.637Z,5000
2022-08-18T09:45:07.438Z,5000
2022-08-18T09:46:07.487Z,4000
2022-08-18T09:47:07.437Z,4200
2022-08-18T09:48:10.106Z,4000
2022-08-18T09:49:08.424Z,3000
2022-08-18T09:50:09.170Z,3400
2022-08-18T09:51:07.343Z,3200
2022-08-18T09:52:07.672Z,3100
2022-08-18T09:53:07.291Z,3060
2022-08-18T09:54:07.532Z,3080
2022-08-18T09:55:07.804Z,3200
2022-08-18T09:56:07.199Z,3400
2022-08-18T09:57:07.491Z,3700
2022-08-18T09:58:07.685Z,3900
2022-08-18T09:59:09.837Z,4000
2022-08-18T10:00:08.301Z,4600
2022-08-18T10:01:07.090Z,4000
2022-08-18T10:02:14.216Z,5000
2022-08-18T10:03:07.526Z,5000
2022-08-18T10:04:06.967Z,6000
2022-08-18T10:05:07.665Z,7000
2022-08-18T10:07:07.342Z,8100
2022-08-18T10:08:07.674Z,8300
2022-08-18T10:10:18.478Z,8500
2022-08-18T10:11:09.659Z,8490
2022-08-18T10:12:08.160Z,8600
2022-08-18T10:13:07.219Z,8600
2022-08-18T10:14:07.803Z,8000
2022-08-18T10:15:07.485Z,7000
2022-08-18T10:16:10.896Z,7200
2022-08-18T10:17:23.580Z,7000
2022-08-18T10:18:07.712Z,8000
2022-08-18T10:19:07.681Z,0
2022-08-18T10:20:07.222Z,10000
2022-08-18T10:21:07.777Z,10000
2022-08-18T10:22:07.439Z,9000
2022-08-18T10:23:07.912Z,9400
2022-08-18T10:25:22.233Z,9400
2022-08-18T10:26:11.427Z,9000
2022-08-18T10:27:07.190Z,10000
2022-08-18T10:28:07.335Z,11000
2022-08-18T10:29:07.246Z,10000
2022-08-18T10:30:07.879Z,10000
2022-08-18T10:31:10.307Z,0
2022-08-18T10:32:07.222Z,0
2022-08-18T10:33:18.009Z,0
2022-08-18T10:34:16.515Z,20000
2022-08-18T10:35:07.766Z,0
2022-08-18T10:36:07.553Z,0
2022-08-18T10:37:07.272Z,20000
2022-08-18T10:38:07.325Z,0
2022-08-18T10:39:07.640Z,0
2022-08-18T10:40:07.344Z,0
2022-08-18T10:41:15.338Z,0
2022-08-18T10:42:07.231Z,0
2022-08-18T10:43:26.824Z,0
2022-08-18T10:44:21.105Z,0
2022-08-18T10:45:07.542Z,20000
2022-08-18T10:46:24.902Z,20000
2022-08-18T10:47:12.157Z,20000
2022-08-18T10:48:11.953Z,19000
2022-08-18T10:49:08.861Z,0
2022-08-18T10:50:07.638Z,0
2022-08-18T10:51:07.498Z,0
2022-08-18T10:52:07.672Z,0
2022-08-18T10:54:07.718Z,20000
2022-08-18T10:56:07.648Z,20000
2022-08-18T10:57:07.139Z,20000
2022-08-18T10:58:07.332Z,10000
2022-08-18T10:59:07.274Z,10000
2022-08-18T11:00:08.423Z,0
2022-08-18T11:01:07.223Z,0
2022-08-18T11:02:07.677Z,0
2022-08-18T11:03:42.618Z,20000
2022-08-18T11:04:14.060Z,20000
2022-08-18T11:05:07.958Z,0
2022-08-18T11:06:14.501Z,0
2022-08-18T11:07:08.374Z,20000
2022-08-18T11:08:15.734Z,0
2022-08-18T11:09:07.769Z,20000
2022-08-18T11:10:29.460Z,0
2022-08-18T11:11:33.031Z,0
2022-08-18T11:12:07.569Z,10000
2022-08-18T11:13:08.850Z,15000
2022-08-18T11:14:07.811Z,0
2022-08-18T11:15:23.288Z,0
2022-08-18T11:17:07.566Z,10000
2022-08-18T11:18:10.337Z,10000
2022-08-18T11:19:07.583Z,10000
2022-08-18T11:20:07.509Z,9000
2022-08-18T11:21:08.231Z,9000
2022-08-18T11:22:07.353Z,8000
2022-08-18T11:23:07.823Z,8780
2022-08-18T11:24:07.710Z,9000
2022-08-18T11:25:07.935Z,9000
2022-08-18T11:26:07.260Z,9000
2022-08-18T11:27:15.202Z,10000
2022-08-18T11:28:07.786Z,10000
2022-08-18T11:29:07.489Z,9800
2022-08-18T11:30:08.059Z,9759
2022-08-18T11:31:07.772Z,9000
2022-08-18T11:32:09.277Z,10000
2022-08-18T11:33:07.132Z,0
2022-08-18T11:34:07.304Z,0
2022-08-18T11:35:07.612Z,7000
2022-08-18T11:36:07.430Z,7000
2022-08-18T11:37:08.907Z,7000
2022-08-18T11:38:07.694Z,7200
2022-08-18T11:39:07.371Z,7000
2022-08-18T11:40:09.610Z,0
2022-08-18T11:41:09.488Z,0
2022-08-18T11:42:07.451Z,10000
2022-08-18T11:43:07.924Z,10000
2022-08-18T11:44:08.037Z,0
2022-08-18T11:45:07.876Z,8000
2022-08-18T11:46:07.650Z,7000
2022-08-18T11:47:07.998Z,6000
2022-08-18T11:48:22.018Z,6600
2022-08-18T11:49:07.559Z,6600
2022-08-18T11:50:07.466Z,7000
2022-08-18T11:51:07.515Z,7000
2022-08-18T11:52:07.297Z,8000
2022-08-18T11:53:07.740Z,0
2022-08-18T11:54:07.405Z,0
2022-08-18T11:55:16.338Z,10000
2022-08-18T11:57:10.098Z,0
2022-08-18T11:58:12.688Z,8000
2022-08-18T11:59:07.207Z,7000
2022-08-18T12:00:22.661Z,6900
2022-08-18T12:01:08.168Z,6878
2022-08-18T12:02:07.698Z,6800
2022-08-18T12:03:07.391Z,6000
2022-08-18T12:04:26.330Z,5000
2022-08-18T12:06:07.749Z,4000
2022-08-18T12:07:07.805Z,3800
2022-08-18T12:09:07.615Z,3670
2022-08-18T12:10:17.299Z,3700
2022-08-18T12:11:26.857Z,3711
2022-08-18T12:12:07.697Z,3600
2022-08-18T12:13:07.195Z,3500
2022-08-18T12:14:31.435Z,3400
2022-08-18T12:15:17.218Z,3310
2022-08-18T12:16:07.602Z,3256
2022-08-18T12:17:07.195Z,3300
2022-08-18T12:18:07.225Z,3400
2022-08-18T12:19:07.160Z,3600
2022-08-18T12:20:07.513Z,3000
2022-08-18T12:21:07.298Z,4000
2022-08-18T12:22:11.780Z,4000
2022-08-18T12:25:12.172Z,5000
2022-08-18T12:26:07.102Z,6000
2022-08-18T12:27:20.524Z,6000
2022-08-18T12:28:10.868Z,7000
2022-08-18T12:29:08.684Z,0
2022-08-18T12:30:07.566Z,0
2022-08-18T12:31:17.052Z,10000
2022-08-18T12:32:08.499Z,10540
2022-08-18T12:33:12.421Z,10600
2022-08-18T12:34:07.350Z,11000
2022-08-18T12:35:09.371Z,11000
2022-08-18T12:36:07.404Z,11000
2022-08-18T12:37:34.020Z,10000
2022-08-18T12:38:13.889Z,10000
2022-08-18T12:39:07.349Z,10000
2022-08-18T12:40:08.621Z,10000
2022-08-18T12:41:07.320Z,10000
2022-08-18T12:42:07.392Z,0
2022-08-18T12:43:07.747Z,10000
2022-08-18T12:44:13.165Z,10000
2022-08-18T12:45:07.580Z,12000
2022-08-18T12:46:07.398Z,11000
2022-08-18T12:47:07.452Z,11000
2022-08-18T12:48:07.235Z,11200
2022-08-18T12:49:07.482Z,10900
2022-08-18T12:50:07.382Z,10700
2022-08-18T12:51:07.976Z,10000
2022-08-18T12:52:07.598Z,0
2022-08-18T12:53:07.501Z,8000
2022-08-18T12:54:07.468Z,8500
2022-08-18T12:55:07.190Z,0
2022-08-18T12:56:08.561Z,10000
2022-08-18T12:57:07.048Z,10000
2022-08-18T12:58:07.270Z,12000
2022-08-18T12:59:07.587Z,11900
2022-08-18T13:00:08.113Z,11000
2022-08-18T13:01:07.684Z,10000
2022-08-18T13:02:07.440Z,9000
2022-08-18T13:03:07.469Z,9000
2022-08-18T13:04:11.416Z,10000
2022-08-18T13:06:07.586Z,10000
2022-08-18T13:07:07.391Z,14200
2022-08-18T13:08:12.437Z,13900
2022-08-18T13:09:16.223Z,14000
2022-08-18T13:10:07.655Z,14000
2022-08-18T13:11:14.632Z,14600
2022-08-18T13:12:12.670Z,14700
2022-08-18T13:13:07.408Z,15000
2022-08-18T13:14:08.920Z,15200
2022-08-18T13:15:07.889Z,15500
2022-08-18T13:16:07.109Z,15800
2022-08-18T13:17:13.147Z,15900
2022-08-18T13:18:07.426Z,15000
2022-08-18T13:19:07.603Z,15520
2022-08-18T13:20:07.713Z,15000
2022-08-18T13:21:07.591Z,10000
2022-08-18T13:22:07.417Z,10000
2022-08-18T13:23:08.462Z,10000
2022-08-18T13:24:07.435Z,21000
2022-08-18T13:25:07.605Z,20000
2022-08-18T13:26:08.760Z,20000
2022-08-18T13:27:13.633Z,20000
2022-08-18T13:28:07.631Z,0
2022-08-18T13:29:10.150Z,20000
2022-08-18T13:30:16.805Z,22000
2022-08-18T13:31:07.852Z,20000
2022-08-18T13:32:07.426Z,0
2022-08-18T13:33:34.504Z,20000
2022-08-18T13:34:07.167Z,20000
2022-08-18T13:35:09.059Z,23000
2022-08-18T13:36:07.285Z,20000
2022-08-18T13:37:07.711Z,20000
2022-08-18T13:38:17.048Z,20000
2022-08-18T13:39:07.857Z,20000
2022-08-18T13:40:07.737Z,20000
2022-08-18T13:41:07.440Z,20000